sensor_id;sensor_type;location;lat;lon;timestamp;P1;durP1;ratioP1;P2;durP2;ratioP2
18443;SDS011;9350;53.176;8.194;2023-04-03T00:01:38;2.90;;;1.38;;
18443;SDS011;9350;53.176;8.194;2023-04-03T00:04:05;3.20;;;1.48;;
18443;SDS011;9350;53.176;8.194;2023-04-03T00:06:33;3.55;;;1.30;;
18443;SDS011;9350;53.176;8.194;2023-04-03T00:09:01;5.93;;;1.35;;
18443;SDS011;9350;53.176;8.194;2023-04-03T00:11:28;3.72;;;1.42;;
18443;SDS011;9350;53.176;8.194;2023-04-03T00:13:54;4.78;;;1.45;;
18443;SDS011;9350;53.176;8.194;2023-04-03T00:16:21;6.30;;;2.00;;
18443;SDS011;9350;53.176;8.194;2023-04-03T00:18:48;5.88;;;1.58;;
18443;SDS011;9350;53.176;8.194;2023-04-03T00:21:15;6.32;;;1.60;;
18443;SDS011;9350;53.176;8.194;2023-04-03T00:23:43;1.42;;;1.30;;
18443;SDS011;9350;53.176;8.194;2023-04-03T00:26:10;4.80;;;1.50;;
18443;SDS011;9350;53.176;8.194;2023-04-03T00:28:37;3.75;;;1.85;;
18443;SDS011;9350;53.176;8.194;2023-04-03T00:31:03;4.00;;;1.60;;
18443;SDS011;9350;53.176;8.194;2023-04-03T00:33:30;4.25;;;1.45;;
18443;SDS011;9350;53.176;8.194;2023-04-03T00:35:57;4.55;;;1.65;;
18443;SDS011;9350;53.176;8.194;2023-04-03T00:38:24;5.70;;;1.80;;
18443;SDS011;9350;53.176;8.194;2023-04-03T00:40:52;2.25;;;1.30;;
18443;SDS011;9350;53.176;8.194;2023-04-03T00:43:20;2.38;;;1.20;;
18443;SDS011;9350;53.176;8.194;2023-04-03T00:45:48;4.95;;;1.60;;
18443;SDS011;9350;53.176;8.194;2023-04-03T00:48:17;5.88;;;1.58;;
18443;SDS011;9350;53.176;8.194;2023-04-03T00:50:46;4.53;;;1.65;;
18443;SDS011;9350;53.176;8.194;2023-04-03T00:53:16;2.97;;;1.30;;
18443;SDS011;9350;53.176;8.194;2023-04-03T00:55:45;2.70;;;1.65;;
18443;SDS011;9350;53.176;8.194;2023-04-03T00:58:16;5.70;;;1.70;;
18443;SDS011;9350;53.176;8.194;2023-04-03T01:00:46;5.10;;;1.67;;
18443;SDS011;9350;53.176;8.194;2023-04-03T01:03:21;1.65;;;1.23;;
18443;SDS011;9350;53.176;8.194;2023-04-03T01:05:47;3.00;;;1.40;;
18443;SDS011;9350;53.176;8.194;2023-04-03T01:08:15;5.38;;;1.80;;
18443;SDS011;9350;53.176;8.194;2023-04-03T01:10:42;4.30;;;1.77;;
18443;SDS011;9350;53.176;8.194;2023-04-03T01:13:21;3.38;;;1.45;;
18443;SDS011;9350;53.176;8.194;2023-04-03T01:15:50;4.28;;;1.42;;
18443;SDS011;9350;53.176;8.194;2023-04-03T01:18:17;4.32;;;1.42;;
18443;SDS011;9350;53.176;8.194;2023-04-03T01:23:50;4.90;;;1.50;;
18443;SDS011;9350;53.176;8.194;2023-04-03T01:26:24;6.97;;;1.70;;
18443;SDS011;9350;53.176;8.194;2023-04-03T01:28:54;6.40;;;1.60;;
18443;SDS011;9350;53.176;8.194;2023-04-03T01:31:22;4.38;;;1.80;;
18443;SDS011;9350;53.176;8.194;2023-04-03T01:33:53;3.50;;;1.63;;
18443;SDS011;9350;53.176;8.194;2023-04-03T01:36:21;10.15;;;1.85;;
18443;SDS011;9350;53.176;8.194;2023-04-03T01:38:49;6.25;;;1.60;;
18443;SDS011;9350;53.176;8.194;2023-04-03T01:41:17;4.60;;;1.58;;
18443;SDS011;9350;53.176;8.194;2023-04-03T01:43:45;4.93;;;1.70;;
18443;SDS011;9350;53.176;8.194;2023-04-03T01:46:12;8.80;;;1.77;;
18443;SDS011;9350;53.176;8.194;2023-04-03T01:48:39;5.65;;;2.20;;
18443;SDS011;9350;53.176;8.194;2023-04-03T01:51:08;2.15;;;1.42;;
18443;SDS011;9350;53.176;8.194;2023-04-03T01:53:35;3.75;;;1.90;;
18443;SDS011;9350;53.176;8.194;2023-04-03T01:56:02;3.97;;;1.70;;
18443;SDS011;9350;53.176;8.194;2023-04-03T01:58:29;5.25;;;1.73;;
18443;SDS011;9350;53.176;8.194;2023-04-03T02:00:56;3.55;;;1.48;;
18443;SDS011;9350;53.176;8.194;2023-04-03T02:03:22;5.85;;;1.90;;
18443;SDS011;9350;53.176;8.194;2023-04-03T02:05:50;3.60;;;1.85;;
18443;SDS011;9350;53.176;8.194;2023-04-03T02:08:18;5.38;;;1.92;;
18443;SDS011;9350;53.176;8.194;2023-04-03T02:10:46;3.63;;;1.73;;
18443;SDS011;9350;53.176;8.194;2023-04-03T02:13:13;4.88;;;2.42;;
18443;SDS011;9350;53.176;8.194;2023-04-03T02:15:40;2.53;;;1.40;;
18443;SDS011;9350;53.176;8.194;2023-04-03T02:18:07;5.95;;;2.10;;
18443;SDS011;9350;53.176;8.194;2023-04-03T02:20:34;5.90;;;1.80;;
18443;SDS011;9350;53.176;8.194;2023-04-03T02:23:01;9.90;;;1.90;;
18443;SDS011;9350;53.176;8.194;2023-04-03T02:25:29;6.63;;;1.73;;
18443;SDS011;9350;53.176;8.194;2023-04-03T02:27:57;7.95;;;1.80;;
18443;SDS011;9350;53.176;8.194;2023-04-03T02:30:23;4.15;;;1.55;;
18443;SDS011;9350;53.176;8.194;2023-04-03T02:32:51;3.25;;;1.88;;
18443;SDS011;9350;53.176;8.194;2023-04-03T02:35:18;4.55;;;1.65;;
18443;SDS011;9350;53.176;8.194;2023-04-03T02:37:45;9.65;;;1.80;;
18443;SDS011;9350;53.176;8.194;2023-04-03T02:40:11;5.38;;;2.00;;
18443;SDS011;9350;53.176;8.194;2023-04-03T02:42:39;4.63;;;1.77;;
18443;SDS011;9350;53.176;8.194;2023-04-03T02:45:06;3.25;;;1.70;;
18443;SDS011;9350;53.176;8.194;2023-04-03T02:47:33;5.20;;;1.85;;
18443;SDS011;9350;53.176;8.194;2023-04-03T02:50:00;4.72;;;1.80;;
18443;SDS011;9350;53.176;8.194;2023-04-03T02:52:27;7.60;;;2.78;;
18443;SDS011;9350;53.176;8.194;2023-04-03T02:54:54;6.15;;;1.90;;
18443;SDS011;9350;53.176;8.194;2023-04-03T02:57:22;3.38;;;1.88;;
18443;SDS011;9350;53.176;8.194;2023-04-03T02:59:50;3.10;;;1.65;;
18443;SDS011;9350;53.176;8.194;2023-04-03T03:02:16;3.60;;;1.77;;
18443;SDS011;9350;53.176;8.194;2023-04-03T03:04:43;6.35;;;1.83;;
18443;SDS011;9350;53.176;8.194;2023-04-03T03:07:10;10.35;;;2.40;;
18443;SDS011;9350;53.176;8.194;2023-04-03T03:09:36;5.40;;;1.52;;
18443;SDS011;9350;53.176;8.194;2023-04-03T03:12:03;6.03;;;2.25;;
18443;SDS011;9350;53.176;8.194;2023-04-03T03:14:30;6.95;;;2.00;;
18443;SDS011;9350;53.176;8.194;2023-04-03T03:16:58;7.00;;;1.95;;
18443;SDS011;9350;53.176;8.194;2023-04-03T03:19:25;5.43;;;1.70;;
18443;SDS011;9350;53.176;8.194;2023-04-03T03:21:52;4.68;;;1.95;;
18443;SDS011;9350;53.176;8.194;2023-04-03T03:24:19;5.85;;;2.00;;
18443;SDS011;9350;53.176;8.194;2023-04-03T03:26:45;9.65;;;1.80;;
18443;SDS011;9350;53.176;8.194;2023-04-03T03:29:12;2.97;;;1.65;;
18443;SDS011;9350;53.176;8.194;2023-04-03T03:31:39;4.18;;;1.50;;
18443;SDS011;9350;53.176;8.194;2023-04-03T03:34:07;7.85;;;2.30;;
18443;SDS011;9350;53.176;8.194;2023-04-03T03:36:33;3.00;;;1.88;;
18443;SDS011;9350;53.176;8.194;2023-04-03T03:39:01;6.47;;;1.95;;
18443;SDS011;9350;53.176;8.194;2023-04-03T03:41:28;3.70;;;1.95;;
18443;SDS011;9350;53.176;8.194;2023-04-03T03:43:54;7.93;;;2.03;;
18443;SDS011;9350;53.176;8.194;2023-04-03T03:46:21;6.00;;;1.98;;
18443;SDS011;9350;53.176;8.194;2023-04-03T03:48:48;4.82;;;1.75;;
18443;SDS011;9350;53.176;8.194;2023-04-03T03:51:16;6.63;;;2.22;;
18443;SDS011;9350;53.176;8.194;2023-04-03T03:53:42;7.07;;;1.90;;
18443;SDS011;9350;53.176;8.194;2023-04-03T03:56:09;5.65;;;1.90;;
18443;SDS011;9350;53.176;8.194;2023-04-03T03:58:36;5.15;;;1.83;;
18443;SDS011;9350;53.176;8.194;2023-04-03T04:01:03;6.72;;;1.80;;
18443;SDS011;9350;53.176;8.194;2023-04-03T04:03:31;6.18;;;1.92;;
18443;SDS011;9350;53.176;8.194;2023-04-03T04:05:58;6.22;;;2.42;;
18443;SDS011;9350;53.176;8.194;2023-04-03T04:08:26;5.30;;;1.88;;
18443;SDS011;9350;53.176;8.194;2023-04-03T04:10:53;2.58;;;1.77;;
18443;SDS011;9350;53.176;8.194;2023-04-03T04:13:20;7.00;;;1.70;;
18443;SDS011;9350;53.176;8.194;2023-04-03T04:15:47;5.70;;;2.38;;
18443;SDS011;9350;53.176;8.194;2023-04-03T04:18:14;5.53;;;2.03;;
18443;SDS011;9350;53.176;8.194;2023-04-03T04:20:40;5.00;;;2.22;;
18443;SDS011;9350;53.176;8.194;2023-04-03T04:23:07;5.50;;;2.35;;
18443;SDS011;9350;53.176;8.194;2023-04-03T04:25:35;5.72;;;2.28;;
18443;SDS011;9350;53.176;8.194;2023-04-03T04:28:02;7.53;;;2.00;;
18443;SDS011;9350;53.176;8.194;2023-04-03T04:30:28;5.07;;;2.20;;
18443;SDS011;9350;53.176;8.194;2023-04-03T04:32:55;2.72;;;1.80;;
18443;SDS011;9350;53.176;8.194;2023-04-03T04:35:22;5.85;;;2.17;;
18443;SDS011;9350;53.176;8.194;2023-04-03T04:37:49;6.75;;;1.77;;
18443;SDS011;9350;53.176;8.194;2023-04-03T04:40:15;3.67;;;2.03;;
18443;SDS011;9350;53.176;8.194;2023-04-03T04:42:44;7.70;;;2.33;;
18443;SDS011;9350;53.176;8.194;2023-04-03T04:45:10;6.53;;;1.85;;
18443;SDS011;9350;53.176;8.194;2023-04-03T04:47:37;7.60;;;2.10;;
18443;SDS011;9350;53.176;8.194;2023-04-03T04:50:04;5.63;;;2.13;;
18443;SDS011;9350;53.176;8.194;2023-04-03T04:52:32;5.88;;;2.00;;
18443;SDS011;9350;53.176;8.194;2023-04-03T04:54:58;4.15;;;2.45;;
18443;SDS011;9350;53.176;8.194;2023-04-03T04:57:25;6.45;;;2.30;;
18443;SDS011;9350;53.176;8.194;2023-04-03T04:59:53;3.55;;;1.92;;
18443;SDS011;9350;53.176;8.194;2023-04-03T05:02:20;6.07;;;2.50;;
18443;SDS011;9350;53.176;8.194;2023-04-03T05:04:47;6.00;;;2.03;;
18443;SDS011;9350;53.176;8.194;2023-04-03T05:07:15;4.30;;;2.20;;
18443;SDS011;9350;53.176;8.194;2023-04-03T05:09:41;8.35;;;3.15;;
18443;SDS011;9350;53.176;8.194;2023-04-03T05:12:08;5.13;;;2.33;;
18443;SDS011;9350;53.176;8.194;2023-04-03T05:14:35;8.40;;;2.65;;
18443;SDS011;9350;53.176;8.194;2023-04-03T05:17:03;9.80;;;2.67;;
18443;SDS011;9350;53.176;8.194;2023-04-03T05:19:30;8.77;;;2.72;;
18443;SDS011;9350;53.176;8.194;2023-04-03T05:21:56;5.53;;;2.30;;
18443;SDS011;9350;53.176;8.194;2023-04-03T05:24:23;5.85;;;2.33;;
18443;SDS011;9350;53.176;8.194;2023-04-03T05:26:51;5.30;;;2.17;;
18443;SDS011;9350;53.176;8.194;2023-04-03T05:29:17;8.35;;;2.50;;
18443;SDS011;9350;53.176;8.194;2023-04-03T05:31:44;6.75;;;2.22;;
18443;SDS011;9350;53.176;8.194;2023-04-03T05:34:12;10.15;;;2.55;;
18443;SDS011;9350;53.176;8.194;2023-04-03T05:36:39;5.32;;;2.72;;
18443;SDS011;9350;53.176;8.194;2023-04-03T05:39:06;6.05;;;2.55;;
18443;SDS011;9350;53.176;8.194;2023-04-03T05:41:33;3.90;;;2.22;;
18443;SDS011;9350;53.176;8.194;2023-04-03T05:43:59;9.27;;;2.70;;
18443;SDS011;9350;53.176;8.194;2023-04-03T05:46:26;3.00;;;2.40;;
18443;SDS011;9350;53.176;8.194;2023-04-03T05:48:53;7.53;;;2.67;;
18443;SDS011;9350;53.176;8.194;2023-04-03T05:51:22;5.88;;;2.78;;
18443;SDS011;9350;53.176;8.194;2023-04-03T05:53:51;5.35;;;2.78;;
18443;SDS011;9350;53.176;8.194;2023-04-03T05:56:22;4.00;;;2.58;;
18443;SDS011;9350;53.176;8.194;2023-04-03T05:58:49;4.95;;;2.35;;
18443;SDS011;9350;53.176;8.194;2023-04-03T06:01:16;5.30;;;2.75;;
18443;SDS011;9350;53.176;8.194;2023-04-03T06:03:42;10.95;;;2.80;;
18443;SDS011;9350;53.176;8.194;2023-04-03T06:06:11;4.97;;;2.45;;
18443;SDS011;9350;53.176;8.194;2023-04-03T06:08:40;13.57;;;2.90;;
18443;SDS011;9350;53.176;8.194;2023-04-03T06:11:08;8.70;;;2.90;;
18443;SDS011;9350;53.176;8.194;2023-04-03T06:13:35;10.35;;;3.47;;
18443;SDS011;9350;53.176;8.194;2023-04-03T06:16:03;9.05;;;3.05;;
18443;SDS011;9350;53.176;8.194;2023-04-03T06:18:30;6.43;;;2.85;;
18443;SDS011;9350;53.176;8.194;2023-04-03T06:20:57;10.55;;;3.33;;
18443;SDS011;9350;53.176;8.194;2023-04-03T06:23:25;11.40;;;3.25;;
18443;SDS011;9350;53.176;8.194;2023-04-03T06:25:53;4.47;;;2.80;;
18443;SDS011;9350;53.176;8.194;2023-04-03T06:28:20;6.28;;;3.10;;
18443;SDS011;9350;53.176;8.194;2023-04-03T06:30:47;8.77;;;3.65;;
18443;SDS011;9350;53.176;8.194;2023-04-03T06:33:14;6.78;;;2.88;;
18443;SDS011;9350;53.176;8.194;2023-04-03T06:35:40;4.82;;;3.10;;
18443;SDS011;9350;53.176;8.194;2023-04-03T06:38:07;8.57;;;3.28;;
18443;SDS011;9350;53.176;8.194;2023-04-03T06:40:35;8.02;;;2.90;;
18443;SDS011;9350;53.176;8.194;2023-04-03T06:43:03;11.55;;;3.47;;
18443;SDS011;9350;53.176;8.194;2023-04-03T06:45:30;7.97;;;2.65;;
18443;SDS011;9350;53.176;8.194;2023-04-03T06:47:57;6.90;;;2.88;;
18443;SDS011;9350;53.176;8.194;2023-04-03T06:50:23;7.15;;;3.33;;
18443;SDS011;9350;53.176;8.194;2023-04-03T06:52:51;5.22;;;2.80;;
18443;SDS011;9350;53.176;8.194;2023-04-03T06:55:17;4.38;;;2.72;;
18443;SDS011;9350;53.176;8.194;2023-04-03T06:57:44;6.05;;;2.80;;
18443;SDS011;9350;53.176;8.194;2023-04-03T07:00:13;7.20;;;2.58;;
18443;SDS011;9350;53.176;8.194;2023-04-03T07:02:41;7.78;;;2.58;;
18443;SDS011;9350;53.176;8.194;2023-04-03T07:05:08;6.50;;;2.75;;
18443;SDS011;9350;53.176;8.194;2023-04-03T07:07:35;4.38;;;2.30;;
18443;SDS011;9350;53.176;8.194;2023-04-03T07:10:03;4.35;;;2.22;;
18443;SDS011;9350;53.176;8.194;2023-04-03T07:12:30;5.72;;;2.40;;
18443;SDS011;9350;53.176;8.194;2023-04-03T07:14:57;5.40;;;2.55;;
18443;SDS011;9350;53.176;8.194;2023-04-03T07:17:25;4.70;;;2.22;;
18443;SDS011;9350;53.176;8.194;2023-04-03T07:19:52;4.97;;;2.50;;
18443;SDS011;9350;53.176;8.194;2023-04-03T07:22:19;7.97;;;2.70;;
18443;SDS011;9350;53.176;8.194;2023-04-03T07:24:45;4.63;;;2.47;;
18443;SDS011;9350;53.176;8.194;2023-04-03T07:27:12;4.22;;;2.42;;
18443;SDS011;9350;53.176;8.194;2023-04-03T07:29:39;4.03;;;2.42;;
18443;SDS011;9350;53.176;8.194;2023-04-03T07:32:06;6.50;;;2.13;;
18443;SDS011;9350;53.176;8.194;2023-04-03T07:34:34;6.35;;;2.38;;
18443;SDS011;9350;53.176;8.194;2023-04-03T07:37:01;7.93;;;2.30;;
18443;SDS011;9350;53.176;8.194;2023-04-03T07:39:28;5.65;;;1.90;;
18443;SDS011;9350;53.176;8.194;2023-04-03T07:41:55;6.80;;;2.30;;
18443;SDS011;9350;53.176;8.194;2023-04-03T07:44:21;3.40;;;2.20;;
18443;SDS011;9350;53.176;8.194;2023-04-03T07:46:48;7.90;;;2.10;;
18443;SDS011;9350;53.176;8.194;2023-04-03T07:49:15;7.72;;;2.28;;
18443;SDS011;9350;53.176;8.194;2023-04-03T07:51:44;6.85;;;1.98;;
18443;SDS011;9350;53.176;8.194;2023-04-03T07:54:11;5.32;;;2.17;;
18443;SDS011;9350;53.176;8.194;2023-04-03T07:56:38;4.53;;;2.05;;
18443;SDS011;9350;53.176;8.194;2023-04-03T07:59:05;6.38;;;2.30;;
18443;SDS011;9350;53.176;8.194;2023-04-03T08:01:31;6.55;;;1.77;;
18443;SDS011;9350;53.176;8.194;2023-04-03T08:03:58;5.63;;;2.08;;
18443;SDS011;9350;53.176;8.194;2023-04-03T08:06:25;6.35;;;2.10;;
18443;SDS011;9350;53.176;8.194;2023-04-03T08:08:53;3.38;;;1.70;;
18443;SDS011;9350;53.176;8.194;2023-04-03T08:11:20;3.38;;;1.80;;
18443;SDS011;9350;53.176;8.194;2023-04-03T08:13:48;5.20;;;2.30;;
18443;SDS011;9350;53.176;8.194;2023-04-03T08:16:16;4.38;;;2.28;;
18443;SDS011;9350;53.176;8.194;2023-04-03T08:18:43;2.10;;;1.73;;
18443;SDS011;9350;53.176;8.194;2023-04-03T08:21:11;6.38;;;1.88;;
18443;SDS011;9350;53.176;8.194;2023-04-03T08:23:38;6.15;;;1.73;;
18443;SDS011;9350;53.176;8.194;2023-04-03T08:26:11;7.40;;;2.00;;
18443;SDS011;9350;53.176;8.194;2023-04-03T08:28:39;3.88;;;2.00;;
18443;SDS011;9350;53.176;8.194;2023-04-03T08:31:07;4.88;;;2.00;;
18443;SDS011;9350;53.176;8.194;2023-04-03T08:33:36;5.93;;;2.05;;
18443;SDS011;9350;53.176;8.194;2023-04-03T08:36:04;5.20;;;1.90;;
18443;SDS011;9350;53.176;8.194;2023-04-03T08:38:32;3.55;;;1.50;;
18443;SDS011;9350;53.176;8.194;2023-04-03T08:41:02;3.75;;;1.60;;
18443;SDS011;9350;53.176;8.194;2023-04-03T08:43:39;5.63;;;2.42;;
18443;SDS011;9350;53.176;8.194;2023-04-03T08:46:13;4.90;;;1.85;;
18443;SDS011;9350;53.176;8.194;2023-04-03T08:48:42;7.07;;;2.10;;
18443;SDS011;9350;53.176;8.194;2023-04-03T08:51:11;2.97;;;1.65;;
18443;SDS011;9350;53.176;8.194;2023-04-03T08:53:41;6.10;;;1.88;;
18443;SDS011;9350;53.176;8.194;2023-04-03T08:56:12;4.18;;;2.22;;
18443;SDS011;9350;53.176;8.194;2023-04-03T08:58:46;2.60;;;1.52;;
18443;SDS011;9350;53.176;8.194;2023-04-03T09:01:19;6.35;;;1.67;;
18443;SDS011;9350;53.176;8.194;2023-04-03T09:03:47;5.07;;;1.60;;
18443;SDS011;9350;53.176;8.194;2023-04-03T09:06:14;1.95;;;1.50;;
18443;SDS011;9350;53.176;8.194;2023-04-03T09:08:46;2.17;;;1.45;;
18443;SDS011;9350;53.176;8.194;2023-04-03T09:11:20;3.97;;;1.42;;
18443;SDS011;9350;53.176;8.194;2023-04-03T09:13:54;1.65;;;1.00;;
18443;SDS011;9350;53.176;8.194;2023-04-03T09:16:28;3.85;;;1.10;;
18443;SDS011;9350;53.176;8.194;2023-04-03T09:19:07;2.72;;;1.20;;
18443;SDS011;9350;53.176;8.194;2023-04-03T09:21:41;3.63;;;1.10;;
18443;SDS011;9350;53.176;8.194;2023-04-03T09:24:08;3.25;;;1.13;;
18443;SDS011;9350;53.176;8.194;2023-04-03T09:26:39;1.83;;;0.90;;
18443;SDS011;9350;53.176;8.194;2023-04-03T09:29:12;2.80;;;1.08;;
18443;SDS011;9350;53.176;8.194;2023-04-03T09:31:44;1.65;;;1.10;;
18443;SDS011;9350;53.176;8.194;2023-04-03T09:34:14;4.57;;;1.40;;
18443;SDS011;9350;53.176;8.194;2023-04-03T09:36:47;2.47;;;1.30;;
18443;SDS011;9350;53.176;8.194;2023-04-03T09:39:16;1.25;;;0.93;;
18443;SDS011;9350;53.176;8.194;2023-04-03T09:41:54;2.08;;;1.25;;
18443;SDS011;9350;53.176;8.194;2023-04-03T09:44:25;4.35;;;1.30;;
18443;SDS011;9350;53.176;8.194;2023-04-03T09:46:53;2.35;;;1.33;;
18443;SDS011;9350;53.176;8.194;2023-04-03T09:49:19;3.05;;;1.25;;
18443;SDS011;9350;53.176;8.194;2023-04-03T09:51:46;5.13;;;1.38;;
18443;SDS011;9350;53.176;8.194;2023-04-03T09:54:24;2.42;;;1.50;;
18443;SDS011;9350;53.176;8.194;2023-04-03T09:57:07;2.05;;;1.33;;
18443;SDS011;9350;53.176;8.194;2023-04-03T09:59:38;2.45;;;1.15;;
18443;SDS011;9350;53.176;8.194;2023-04-03T10:05:00;6.28;;;1.83;;
18443;SDS011;9350;53.176;8.194;2023-04-03T10:07:28;5.30;;;1.40;;
18443;SDS011;9350;53.176;8.194;2023-04-03T10:09:57;14.50;;;4.60;;
18443;SDS011;9350;53.176;8.194;2023-04-03T10:12:26;6.32;;;1.70;;
18443;SDS011;9350;53.176;8.194;2023-04-03T10:14:55;1.50;;;1.40;;
18443;SDS011;9350;53.176;8.194;2023-04-03T10:17:25;2.53;;;0.98;;
18443;SDS011;9350;53.176;8.194;2023-04-03T10:20:04;2.67;;;1.30;;
18443;SDS011;9350;53.176;8.194;2023-04-03T10:22:37;4.30;;;1.33;;
18443;SDS011;9350;53.176;8.194;2023-04-03T10:25:11;1.98;;;1.20;;
18443;SDS011;9350;53.176;8.194;2023-04-03T10:27:46;2.95;;;1.20;;
18443;SDS011;9350;53.176;8.194;2023-04-03T10:30:22;1.67;;;1.20;;
18443;SDS011;9350;53.176;8.194;2023-04-03T10:33:01;2.80;;;1.30;;
18443;SDS011;9350;53.176;8.194;2023-04-03T10:35:39;1.20;;;1.20;;
18443;SDS011;9350;53.176;8.194;2023-04-03T10:38:14;1.35;;;1.08;;
18443;SDS011;9350;53.176;8.194;2023-04-03T10:40:47;1.40;;;1.30;;
18443;SDS011;9350;53.176;8.194;2023-04-03T10:43:22;1.90;;;1.05;;
18443;SDS011;9350;53.176;8.194;2023-04-03T10:45:57;2.55;;;1.25;;
18443;SDS011;9350;53.176;8.194;2023-04-03T10:48:31;2.50;;;1.23;;
18443;SDS011;9350;53.176;8.194;2023-04-03T10:51:07;2.25;;;1.10;;
18443;SDS011;9350;53.176;8.194;2023-04-03T10:53:44;1.60;;;1.10;;
18443;SDS011;9350;53.176;8.194;2023-04-03T10:56:18;3.72;;;1.10;;
18443;SDS011;9350;53.176;8.194;2023-04-03T10:58:56;1.17;;;1.08;;
18443;SDS011;9350;53.176;8.194;2023-04-03T11:01:43;3.25;;;1.17;;
18443;SDS011;9350;53.176;8.194;2023-04-03T11:04:14;3.53;;;1.20;;
18443;SDS011;9350;53.176;8.194;2023-04-03T11:06:43;1.40;;;1.00;;
18443;SDS011;9350;53.176;8.194;2023-04-03T11:09:18;1.30;;;1.10;;
18443;SDS011;9350;53.176;8.194;2023-04-03T11:11:50;1.17;;;1.10;;
18443;SDS011;9350;53.176;8.194;2023-04-03T11:14:23;2.05;;;1.10;;
18443;SDS011;9350;53.176;8.194;2023-04-03T11:16:55;1.67;;;1.00;;
18443;SDS011;9350;53.176;8.194;2023-04-03T11:19:33;4.70;;;0.93;;
18443;SDS011;9350;53.176;8.194;2023-04-03T11:22:02;1.45;;;0.80;;
18443;SDS011;9350;53.176;8.194;2023-04-03T11:24:34;1.02;;;0.98;;
18443;SDS011;9350;53.176;8.194;2023-04-03T11:27:04;1.05;;;0.90;;
18443;SDS011;9350;53.176;8.194;2023-04-03T11:29:35;1.13;;;0.98;;
18443;SDS011;9350;53.176;8.194;2023-04-03T11:32:11;1.23;;;0.85;;
18443;SDS011;9350;53.176;8.194;2023-04-03T11:34:55;0.82;;;0.82;;
18443;SDS011;9350;53.176;8.194;2023-04-03T11:37:26;2.08;;;1.10;;
18443;SDS011;9350;53.176;8.194;2023-04-03T11:39:58;1.00;;;1.00;;
18443;SDS011;9350;53.176;8.194;2023-04-03T11:42:30;2.42;;;1.13;;
18443;SDS011;9350;53.176;8.194;2023-04-03T11:45:17;1.02;;;0.93;;
18443;SDS011;9350;53.176;8.194;2023-04-03T11:47:58;1.75;;;1.00;;
18443;SDS011;9350;53.176;8.194;2023-04-03T11:50:30;2.58;;;1.13;;
18443;SDS011;9350;53.176;8.194;2023-04-03T11:55:57;1.42;;;0.90;;
18443;SDS011;9350;53.176;8.194;2023-04-03T11:58:30;1.85;;;0.85;;
18443;SDS011;9350;53.176;8.194;2023-04-03T12:00:59;1.25;;;1.00;;
18443;SDS011;9350;53.176;8.194;2023-04-03T12:03:33;1.60;;;1.20;;
18443;SDS011;9350;53.176;8.194;2023-04-03T12:09:22;1.85;;;1.00;;
18443;SDS011;9350;53.176;8.194;2023-04-03T12:11:54;4.65;;;1.00;;
18443;SDS011;9350;53.176;8.194;2023-04-03T12:14:24;2.72;;;1.10;;
18443;SDS011;9350;53.176;8.194;2023-04-03T12:16:52;1.33;;;0.90;;
18443;SDS011;9350;53.176;8.194;2023-04-03T12:19:34;0.90;;;0.90;;
18443;SDS011;9350;53.176;8.194;2023-04-03T12:22:09;4.43;;;1.02;;
18443;SDS011;9350;53.176;8.194;2023-04-03T12:24:38;1.55;;;1.05;;
18443;SDS011;9350;53.176;8.194;2023-04-03T12:30:06;0.88;;;0.88;;
18443;SDS011;9350;53.176;8.194;2023-04-03T12:32:51;1.90;;;1.35;;
18443;SDS011;9350;53.176;8.194;2023-04-03T12:35:34;1.10;;;1.00;;
18443;SDS011;9350;53.176;8.194;2023-04-03T12:40:56;1.60;;;1.20;;
18443;SDS011;9350;53.176;8.194;2023-04-03T12:43:35;3.05;;;1.10;;
18443;SDS011;9350;53.176;8.194;2023-04-03T12:46:11;2.33;;;1.10;;
18443;SDS011;9350;53.176;8.194;2023-04-03T12:48:47;1.23;;;1.15;;
18443;SDS011;9350;53.176;8.194;2023-04-03T12:51:17;1.40;;;1.10;;
18443;SDS011;9350;53.176;8.194;2023-04-03T12:53:47;1.73;;;1.00;;
18443;SDS011;9350;53.176;8.194;2023-04-03T12:56:19;3.40;;;0.90;;
18443;SDS011;9350;53.176;8.194;2023-04-03T12:58:48;1.08;;;0.98;;
18443;SDS011;9350;53.176;8.194;2023-04-03T13:01:16;2.80;;;1.20;;
18443;SDS011;9350;53.176;8.194;2023-04-03T13:03:45;0.98;;;0.90;;
18443;SDS011;9350;53.176;8.194;2023-04-03T13:06:14;1.73;;;1.05;;
18443;SDS011;9350;53.176;8.194;2023-04-03T13:08:51;3.88;;;1.00;;
18443;SDS011;9350;53.176;8.194;2023-04-03T13:11:19;1.35;;;1.10;;
18443;SDS011;9350;53.176;8.194;2023-04-03T13:13:54;2.22;;;1.10;;
18443;SDS011;9350;53.176;8.194;2023-04-03T13:16:22;1.95;;;0.80;;
18443;SDS011;9350;53.176;8.194;2023-04-03T13:18:50;2.42;;;1.20;;
18443;SDS011;9350;53.176;8.194;2023-04-03T13:21:19;1.40;;;1.27;;
18443;SDS011;9350;53.176;8.194;2023-04-03T13:23:50;1.90;;;1.00;;
18443;SDS011;9350;53.176;8.194;2023-04-03T13:26:19;1.20;;;1.10;;
18443;SDS011;9350;53.176;8.194;2023-04-03T13:28:48;1.20;;;1.00;;
18443;SDS011;9350;53.176;8.194;2023-04-03T13:31:18;2.50;;;1.02;;
18443;SDS011;9350;53.176;8.194;2023-04-03T13:33:53;1.38;;;1.20;;
18443;SDS011;9350;53.176;8.194;2023-04-03T13:36:25;2.05;;;0.90;;
18443;SDS011;9350;53.176;8.194;2023-04-03T13:38:59;1.20;;;1.10;;
18443;SDS011;9350;53.176;8.194;2023-04-03T13:41:29;1.60;;;1.30;;
18443;SDS011;9350;53.176;8.194;2023-04-03T13:46:43;1.27;;;1.17;;
18443;SDS011;9350;53.176;8.194;2023-04-03T13:49:20;2.15;;;1.20;;
18443;SDS011;9350;53.176;8.194;2023-04-03T13:51:49;1.40;;;1.30;;
18443;SDS011;9350;53.176;8.194;2023-04-03T13:54:18;2.42;;;1.02;;
18443;SDS011;9350;53.176;8.194;2023-04-03T13:56:52;1.58;;;1.27;;
18443;SDS011;9350;53.176;8.194;2023-04-03T13:59:21;3.50;;;1.30;;
18443;SDS011;9350;53.176;8.194;2023-04-03T14:01:51;1.38;;;1.05;;
18443;SDS011;9350;53.176;8.194;2023-04-03T14:04:20;2.15;;;1.20;;
18443;SDS011;9350;53.176;8.194;2023-04-03T14:06:49;2.50;;;1.30;;
18443;SDS011;9350;53.176;8.194;2023-04-03T14:09:17;1.15;;;1.08;;
18443;SDS011;9350;53.176;8.194;2023-04-03T14:11:46;3.47;;;1.10;;
18443;SDS011;9350;53.176;8.194;2023-04-03T14:14:16;2.50;;;1.23;;
18443;SDS011;9350;53.176;8.194;2023-04-03T14:16:46;1.48;;;1.15;;
18443;SDS011;9350;53.176;8.194;2023-04-03T14:19:20;1.98;;;1.20;;
18443;SDS011;9350;53.176;8.194;2023-04-03T14:21:50;3.33;;;1.17;;
18443;SDS011;9350;53.176;8.194;2023-04-03T14:24:18;1.40;;;1.27;;
18443;SDS011;9350;53.176;8.194;2023-04-03T14:26:45;1.45;;;1.35;;
18443;SDS011;9350;53.176;8.194;2023-04-03T14:29:12;1.50;;;1.40;;
18443;SDS011;9350;53.176;8.194;2023-04-03T14:31:40;1.80;;;1.17;;
18443;SDS011;9350;53.176;8.194;2023-04-03T14:34:09;2.10;;;1.27;;
18443;SDS011;9350;53.176;8.194;2023-04-03T14:36:36;1.75;;;1.23;;
18443;SDS011;9350;53.176;8.194;2023-04-03T14:39:06;1.55;;;1.05;;
18443;SDS011;9350;53.176;8.194;2023-04-03T14:41:33;5.88;;;1.85;;
18443;SDS011;9350;53.176;8.194;2023-04-03T14:44:00;3.15;;;1.52;;
18443;SDS011;9350;53.176;8.194;2023-04-03T14:46:29;2.83;;;1.52;;
18443;SDS011;9350;53.176;8.194;2023-04-03T14:48:58;2.95;;;1.20;;
18443;SDS011;9350;53.176;8.194;2023-04-03T14:51:25;1.40;;;1.30;;
18443;SDS011;9350;53.176;8.194;2023-04-03T14:53:51;1.50;;;1.17;;
18443;SDS011;9350;53.176;8.194;2023-04-03T14:56:23;3.10;;;1.38;;
18443;SDS011;9350;53.176;8.194;2023-04-03T14:58:52;3.00;;;1.10;;
18443;SDS011;9350;53.176;8.194;2023-04-03T15:01:22;4.32;;;1.05;;
18443;SDS011;9350;53.176;8.194;2023-04-03T15:03:49;1.17;;;1.08;;
18443;SDS011;9350;53.176;8.194;2023-04-03T15:06:15;1.80;;;1.20;;
18443;SDS011;9350;53.176;8.194;2023-04-03T15:08:43;11.63;;;1.30;;
18443;SDS011;9350;53.176;8.194;2023-04-03T15:11:11;1.67;;;1.05;;
18443;SDS011;9350;53.176;8.194;2023-04-03T15:13:40;3.88;;;1.30;;
18443;SDS011;9350;53.176;8.194;2023-04-03T15:16:10;1.65;;;1.27;;
18443;SDS011;9350;53.176;8.194;2023-04-03T15:18:41;2.30;;;1.10;;
18443;SDS011;9350;53.176;8.194;2023-04-03T15:21:08;2.92;;;1.20;;
18443;SDS011;9350;53.176;8.194;2023-04-03T15:23:35;1.80;;;1.05;;
18443;SDS011;9350;53.176;8.194;2023-04-03T15:26:02;2.42;;;1.08;;
18443;SDS011;9350;53.176;8.194;2023-04-03T15:28:30;2.38;;;1.20;;
18443;SDS011;9350;53.176;8.194;2023-04-03T15:31:00;3.22;;;1.20;;
18443;SDS011;9350;53.176;8.194;2023-04-03T15:33:27;3.30;;;1.30;;